sensor_id;sensor_type;location;lat;lon;timestamp;P1;durP1;ratioP1;P2;durP2;ratioP2
14268;SDS011;7218;51.480;7.006;2023-12-04T00:00:08;12.43;;;8.52;;
14268;SDS011;7218;51.480;7.006;2023-12-04T00:02:35;12.20;;;8.38;;
14268;SDS011;7218;51.480;7.006;2023-12-04T00:05:05;12.88;;;8.52;;
14268;SDS011;7218;51.480;7.006;2023-12-04T00:07:32;11.95;;;7.88;;
14268;SDS011;7218;51.480;7.006;2023-12-04T00:09:59;12.10;;;8.05;;
14268;SDS011;7218;51.480;7.006;2023-12-04T00:12:25;11.35;;;7.70;;
14268;SDS011;7218;51.480;7.006;2023-12-04T00:14:51;12.45;;;8.23;;
14268;SDS011;7218;51.480;7.006;2023-12-04T00:17:18;11.77;;;8.02;;
14268;SDS011;7218;51.480;7.006;2023-12-04T00:19:44;12.52;;;8.57;;
14268;SDS011;7218;51.480;7.006;2023-12-04T00:22:12;12.98;;;8.13;;
14268;SDS011;7218;51.480;7.006;2023-12-04T00:24:39;12.05;;;8.77;;
14268;SDS011;7218;51.480;7.006;2023-12-04T00:27:05;11.23;;;7.50;;
14268;SDS011;7218;51.480;7.006;2023-12-04T00:29:32;13.10;;;8.40;;
14268;SDS011;7218;51.480;7.006;2023-12-04T00:31:58;12.15;;;8.02;;
14268;SDS011;7218;51.480;7.006;2023-12-04T00:34:25;13.65;;;7.47;;
14268;SDS011;7218;51.480;7.006;2023-12-04T00:36:51;13.23;;;8.32;;
14268;SDS011;7218;51.480;7.006;2023-12-04T00:39:19;11.65;;;7.85;;
14268;SDS011;7218;51.480;7.006;2023-12-04T00:41:45;13.02;;;7.95;;
14268;SDS011;7218;51.480;7.006;2023-12-04T00:44:12;14.02;;;7.88;;
14268;SDS011;7218;51.480;7.006;2023-12-04T00:46:38;10.45;;;7.35;;
14268;SDS011;7218;51.480;7.006;2023-12-04T00:49:04;10.90;;;7.90;;
14268;SDS011;7218;51.480;7.006;2023-12-04T00:51:36;12.77;;;8.07;;
14268;SDS011;7218;51.480;7.006;2023-12-04T00:54:03;10.82;;;7.80;;
14268;SDS011;7218;51.480;7.006;2023-12-04T00:56:31;11.68;;;7.85;;
14268;SDS011;7218;51.480;7.006;2023-12-04T00:58:57;11.20;;;7.95;;
14268;SDS011;7218;51.480;7.006;2023-12-04T01:01:24;9.57;;;7.07;;
14268;SDS011;7218;51.480;7.006;2023-12-04T01:03:50;11.48;;;7.57;;
14268;SDS011;7218;51.480;7.006;2023-12-04T01:06:20;10.43;;;7.05;;
14268;SDS011;7218;51.480;7.006;2023-12-04T01:08:48;11.00;;;6.60;;
14268;SDS011;7218;51.480;7.006;2023-12-04T01:11:15;11.32;;;7.40;;
14268;SDS011;7218;51.480;7.006;2023-12-04T01:13:43;9.05;;;6.68;;
14268;SDS011;7218;51.480;7.006;2023-12-04T01:16:09;9.80;;;6.45;;
14268;SDS011;7218;51.480;7.006;2023-12-04T01:18:35;9.23;;;6.80;;
14268;SDS011;7218;51.480;7.006;2023-12-04T01:21:02;10.70;;;7.20;;
14268;SDS011;7218;51.480;7.006;2023-12-04T01:23:29;9.00;;;6.63;;
14268;SDS011;7218;51.480;7.006;2023-12-04T01:25:55;8.95;;;6.40;;
14268;SDS011;7218;51.480;7.006;2023-12-04T01:28:22;9.18;;;6.75;;
14268;SDS011;7218;51.480;7.006;2023-12-04T01:30:49;9.15;;;6.60;;
14268;SDS011;7218;51.480;7.006;2023-12-04T01:33:16;9.45;;;6.68;;
14268;SDS011;7218;51.480;7.006;2023-12-04T01:35:42;9.02;;;6.65;;
14268;SDS011;7218;51.480;7.006;2023-12-04T01:38:09;9.45;;;6.60;;
14268;SDS011;7218;51.480;7.006;2023-12-04T01:40:35;10.38;;;7.05;;
14268;SDS011;7218;51.480;7.006;2023-12-04T01:43:02;10.15;;;6.88;;
14268;SDS011;7218;51.480;7.006;2023-12-04T01:45:28;10.82;;;6.80;;
14268;SDS011;7218;51.480;7.006;2023-12-04T01:47:56;9.52;;;6.95;;
14268;SDS011;7218;51.480;7.006;2023-12-04T01:50:23;10.35;;;6.93;;
14268;SDS011;7218;51.480;7.006;2023-12-04T01:52:50;8.65;;;6.35;;
14268;SDS011;7218;51.480;7.006;2023-12-04T01:55:19;9.80;;;6.63;;
14268;SDS011;7218;51.480;7.006;2023-12-04T01:57:47;8.90;;;6.10;;
14268;SDS011;7218;51.480;7.006;2023-12-04T02:00:14;9.13;;;6.28;;
14268;SDS011;7218;51.480;7.006;2023-12-04T02:02:41;8.57;;;6.32;;
14268;SDS011;7218;51.480;7.006;2023-12-04T02:05:09;7.53;;;5.93;;
14268;SDS011;7218;51.480;7.006;2023-12-04T02:07:37;8.23;;;5.78;;
14268;SDS011;7218;51.480;7.006;2023-12-04T02:10:04;9.02;;;6.00;;
14268;SDS011;7218;51.480;7.006;2023-12-04T02:12:31;9.20;;;6.15;;
14268;SDS011;7218;51.480;7.006;2023-12-04T02:14:58;7.85;;;5.85;;
14268;SDS011;7218;51.480;7.006;2023-12-04T02:17:24;9.52;;;6.20;;
14268;SDS011;7218;51.480;7.006;2023-12-04T02:19:52;9.20;;;6.18;;
14268;SDS011;7218;51.480;7.006;2023-12-04T02:22:20;8.57;;;5.93;;
14268;SDS011;7218;51.480;7.006;2023-12-04T02:24:48;9.85;;;6.32;;
14268;SDS011;7218;51.480;7.006;2023-12-04T02:27:15;9.88;;;6.00;;
14268;SDS011;7218;51.480;7.006;2023-12-04T02:29:46;9.32;;;5.88;;
14268;SDS011;7218;51.480;7.006;2023-12-04T02:32:18;8.45;;;5.80;;
14268;SDS011;7218;51.480;7.006;2023-12-04T02:34:45;7.53;;;5.72;;
14268;SDS011;7218;51.480;7.006;2023-12-04T02:37:14;8.68;;;5.97;;
14268;SDS011;7218;51.480;7.006;2023-12-04T02:39:42;7.97;;;5.63;;
14268;SDS011;7218;51.480;7.006;2023-12-04T02:42:10;8.98;;;5.78;;
14268;SDS011;7218;51.480;7.006;2023-12-04T02:44:39;8.57;;;5.72;;
14268;SDS011;7218;51.480;7.006;2023-12-04T02:47:05;7.75;;;5.47;;
14268;SDS011;7218;51.480;7.006;2023-12-04T02:49:32;8.45;;;5.55;;
14268;SDS011;7218;51.480;7.006;2023-12-04T02:51:58;7.78;;;5.70;;
14268;SDS011;7218;51.480;7.006;2023-12-04T02:54:25;7.05;;;5.25;;
14268;SDS011;7218;51.480;7.006;2023-12-04T02:56:51;7.25;;;4.93;;
14268;SDS011;7218;51.480;7.006;2023-12-04T02:59:19;8.75;;;5.97;;
14268;SDS011;7218;51.480;7.006;2023-12-04T03:01:45;9.10;;;6.10;;
14268;SDS011;7218;51.480;7.006;2023-12-04T03:04:12;6.75;;;5.20;;
14268;SDS011;7218;51.480;7.006;2023-12-04T03:06:39;9.07;;;5.47;;
14268;SDS011;7218;51.480;7.006;2023-12-04T03:09:05;8.88;;;5.70;;
14268;SDS011;7218;51.480;7.006;2023-12-04T03:11:32;7.32;;;5.30;;
14268;SDS011;7218;51.480;7.006;2023-12-04T03:13:59;7.82;;;5.45;;
14268;SDS011;7218;51.480;7.006;2023-12-04T03:16:27;6.80;;;4.97;;
14268;SDS011;7218;51.480;7.006;2023-12-04T03:18:53;9.30;;;5.88;;
14268;SDS011;7218;51.480;7.006;2023-12-04T03:21:20;7.13;;;5.22;;
14268;SDS011;7218;51.480;7.006;2023-12-04T03:23:46;6.05;;;4.38;;
14268;SDS011;7218;51.480;7.006;2023-12-04T03:26:13;7.80;;;5.53;;
14268;SDS011;7218;51.480;7.006;2023-12-04T03:28:39;8.10;;;5.20;;
14268;SDS011;7218;51.480;7.006;2023-12-04T03:31:06;8.35;;;5.35;;
14268;SDS011;7218;51.480;7.006;2023-12-04T03:33:34;6.13;;;4.60;;
14268;SDS011;7218;51.480;7.006;2023-12-04T03:36:00;6.82;;;4.90;;
14268;SDS011;7218;51.480;7.006;2023-12-04T03:38:27;6.00;;;4.38;;
14268;SDS011;7218;51.480;7.006;2023-12-04T03:40:53;6.63;;;4.75;;
14268;SDS011;7218;51.480;7.006;2023-12-04T03:43:20;8.13;;;5.20;;
14268;SDS011;7218;51.480;7.006;2023-12-04T03:45:46;5.85;;;4.43;;
14268;SDS011;7218;51.480;7.006;2023-12-04T03:48:13;7.47;;;4.88;;
14268;SDS011;7218;51.480;7.006;2023-12-04T03:50:40;5.40;;;4.50;;
14268;SDS011;7218;51.480;7.006;2023-12-04T03:53:07;5.85;;;4.53;;
14268;SDS011;7218;51.480;7.006;2023-12-04T03:55:33;5.93;;;4.32;;
14268;SDS011;7218;51.480;7.006;2023-12-04T03:58:00;6.25;;;4.35;;
14268;SDS011;7218;51.480;7.006;2023-12-04T04:00:26;6.78;;;4.28;;
14268;SDS011;7218;51.480;7.006;2023-12-04T04:02:52;6.13;;;4.38;;
14268;SDS011;7218;51.480;7.006;2023-12-04T04:05:19;4.82;;;3.92;;
14268;SDS011;7218;51.480;7.006;2023-12-04T04:07:47;4.78;;;3.83;;
14268;SDS011;7218;51.480;7.006;2023-12-04T04:10:13;5.20;;;3.88;;
14268;SDS011;7218;51.480;7.006;2023-12-04T04:12:40;4.85;;;3.80;;
14268;SDS011;7218;51.480;7.006;2023-12-04T04:15:06;5.38;;;3.88;;
14268;SDS011;7218;51.480;7.006;2023-12-04T04:17:33;5.07;;;3.75;;
14268;SDS011;7218;51.480;7.006;2023-12-04T04:20:00;4.75;;;3.70;;
14268;SDS011;7218;51.480;7.006;2023-12-04T04:22:26;4.30;;;3.55;;
14268;SDS011;7218;51.480;7.006;2023-12-04T04:24:54;5.63;;;4.00;;
14268;SDS011;7218;51.480;7.006;2023-12-04T04:27:22;5.13;;;3.78;;
14268;SDS011;7218;51.480;7.006;2023-12-04T04:29:48;4.35;;;3.63;;
14268;SDS011;7218;51.480;7.006;2023-12-04T04:32:15;5.50;;;3.85;;
14268;SDS011;7218;51.480;7.006;2023-12-04T04:34:41;4.70;;;3.63;;
14268;SDS011;7218;51.480;7.006;2023-12-04T04:37:07;4.90;;;3.55;;
14268;SDS011;7218;51.480;7.006;2023-12-04T04:39:34;5.15;;;3.60;;
14268;SDS011;7218;51.480;7.006;2023-12-04T04:42:02;4.47;;;3.40;;
14268;SDS011;7218;51.480;7.006;2023-12-04T04:44:28;4.82;;;3.58;;
14268;SDS011;7218;51.480;7.006;2023-12-04T04:46:55;3.85;;;3.20;;
14268;SDS011;7218;51.480;7.006;2023-12-04T04:49:21;5.68;;;4.00;;
14268;SDS011;7218;51.480;7.006;2023-12-04T04:51:47;4.97;;;3.72;;
14268;SDS011;7218;51.480;7.006;2023-12-04T04:54:14;6.53;;;3.47;;
14268;SDS011;7218;51.480;7.006;2023-12-04T04:56:40;4.30;;;3.33;;
14268;SDS011;7218;51.480;7.006;2023-12-04T04:59:08;4.72;;;3.45;;
14268;SDS011;7218;51.480;7.006;2023-12-04T05:01:35;5.75;;;3.90;;
14268;SDS011;7218;51.480;7.006;2023-12-04T05:04:01;5.43;;;3.85;;
14268;SDS011;7218;51.480;7.006;2023-12-04T05:06:28;5.95;;;3.83;;
14268;SDS011;7218;51.480;7.006;2023-12-04T05:08:55;4.75;;;3.60;;
14268;SDS011;7218;51.480;7.006;2023-12-04T05:11:21;5.07;;;3.40;;
14268;SDS011;7218;51.480;7.006;2023-12-04T05:13:48;4.68;;;3.35;;
14268;SDS011;7218;51.480;7.006;2023-12-04T05:16:16;4.00;;;3.28;;
14268;SDS011;7218;51.480;7.006;2023-12-04T05:18:43;3.85;;;3.10;;
14268;SDS011;7218;51.480;7.006;2023-12-04T05:21:09;4.78;;;3.63;;
14268;SDS011;7218;51.480;7.006;2023-12-04T05:23:36;5.55;;;3.72;;
14268;SDS011;7218;51.480;7.006;2023-12-04T05:26:03;4.18;;;3.15;;
14268;SDS011;7218;51.480;7.006;2023-12-04T05:28:29;4.85;;;3.58;;
14268;SDS011;7218;51.480;7.006;2023-12-04T05:30:56;4.57;;;3.95;;
14268;SDS011;7218;51.480;7.006;2023-12-04T05:33:24;5.47;;;3.47;;
14268;SDS011;7218;51.480;7.006;2023-12-04T05:35:50;6.28;;;4.20;;
14268;SDS011;7218;51.480;7.006;2023-12-04T05:38:17;5.18;;;3.88;;
14268;SDS011;7218;51.480;7.006;2023-12-04T05:40:43;5.20;;;3.65;;
14268;SDS011;7218;51.480;7.006;2023-12-04T05:43:10;6.03;;;3.88;;
14268;SDS011;7218;51.480;7.006;2023-12-04T05:45:36;5.63;;;3.72;;
14268;SDS011;7218;51.480;7.006;2023-12-04T05:48:03;5.45;;;4.20;;
14268;SDS011;7218;51.480;7.006;2023-12-04T05:50:31;5.82;;;3.78;;
14268;SDS011;7218;51.480;7.006;2023-12-04T05:52:57;5.95;;;4.10;;
14268;SDS011;7218;51.480;7.006;2023-12-04T05:55:24;5.53;;;4.00;;
14268;SDS011;7218;51.480;7.006;2023-12-04T05:57:51;5.75;;;4.15;;
14268;SDS011;7218;51.480;7.006;2023-12-04T06:00:18;6.78;;;4.20;;
14268;SDS011;7218;51.480;7.006;2023-12-04T06:02:44;6.00;;;3.63;;
14268;SDS011;7218;51.480;7.006;2023-12-04T06:05:11;6.15;;;4.18;;
14268;SDS011;7218;51.480;7.006;2023-12-04T06:07:39;6.43;;;4.40;;
14268;SDS011;7218;51.480;7.006;2023-12-04T06:10:06;6.13;;;4.20;;
14268;SDS011;7218;51.480;7.006;2023-12-04T06:12:33;6.05;;;4.00;;
14268;SDS011;7218;51.480;7.006;2023-12-04T06:15:00;5.75;;;4.18;;
14268;SDS011;7218;51.480;7.006;2023-12-04T06:17:27;9.57;;;4.65;;
14268;SDS011;7218;51.480;7.006;2023-12-04T06:19:54;8.32;;;4.30;;
14268;SDS011;7218;51.480;7.006;2023-12-04T06:22:20;6.03;;;4.38;;
14268;SDS011;7218;51.480;7.006;2023-12-04T06:24:49;6.18;;;4.15;;
14268;SDS011;7218;51.480;7.006;2023-12-04T06:27:17;6.60;;;4.35;;
14268;SDS011;7218;51.480;7.006;2023-12-04T06:29:45;6.78;;;4.63;;
14268;SDS011;7218;51.480;7.006;2023-12-04T06:32:12;5.93;;;4.32;;
14268;SDS011;7218;51.480;7.006;2023-12-04T06:34:39;6.30;;;4.35;;
14268;SDS011;7218;51.480;7.006;2023-12-04T06:37:07;7.90;;;4.45;;
14268;SDS011;7218;51.480;7.006;2023-12-04T06:39:35;12.13;;;4.70;;
14268;SDS011;7218;51.480;7.006;2023-12-04T06:42:05;6.13;;;4.40;;
14268;SDS011;7218;51.480;7.006;2023-12-04T06:44:33;6.20;;;4.38;;
14268;SDS011;7218;51.480;7.006;2023-12-04T06:47:00;8.75;;;4.85;;
14268;SDS011;7218;51.480;7.006;2023-12-04T06:49:27;7.30;;;4.93;;
14268;SDS011;7218;51.480;7.006;2023-12-04T06:51:56;7.63;;;4.95;;
14268;SDS011;7218;51.480;7.006;2023-12-04T06:54:23;6.85;;;4.70;;
14268;SDS011;7218;51.480;7.006;2023-12-04T06:56:49;7.10;;;4.55;;
14268;SDS011;7218;51.480;7.006;2023-12-04T06:59:18;8.32;;;4.97;;
14268;SDS011;7218;51.480;7.006;2023-12-04T07:01:44;6.30;;;4.50;;
14268;SDS011;7218;51.480;7.006;2023-12-04T07:04:11;7.47;;;4.85;;
14268;SDS011;7218;51.480;7.006;2023-12-04T07:06:38;11.80;;;5.40;;
14268;SDS011;7218;51.480;7.006;2023-12-04T07:09:06;9.05;;;5.03;;
14268;SDS011;7218;51.480;7.006;2023-12-04T07:11:33;7.28;;;4.93;;
14268;SDS011;7218;51.480;7.006;2023-12-04T07:14:00;7.72;;;5.07;;
14268;SDS011;7218;51.480;7.006;2023-12-04T07:16:28;7.72;;;4.80;;
14268;SDS011;7218;51.480;7.006;2023-12-04T07:18:54;6.82;;;5.30;;
14268;SDS011;7218;51.480;7.006;2023-12-04T07:21:21;6.65;;;4.50;;
14268;SDS011;7218;51.480;7.006;2023-12-04T07:23:47;7.93;;;4.60;;
14268;SDS011;7218;51.480;7.006;2023-12-04T07:26:13;7.57;;;5.10;;
14268;SDS011;7218;51.480;7.006;2023-12-04T07:28:40;6.53;;;5.13;;
14268;SDS011;7218;51.480;7.006;2023-12-04T07:31:06;8.57;;;5.30;;
14268;SDS011;7218;51.480;7.006;2023-12-04T07:33:34;6.45;;;4.78;;
14268;SDS011;7218;51.480;7.006;2023-12-04T07:36:01;5.90;;;4.40;;
14268;SDS011;7218;51.480;7.006;2023-12-04T07:38:27;5.55;;;4.13;;
14268;SDS011;7218;51.480;7.006;2023-12-04T07:40:53;6.93;;;4.82;;
14268;SDS011;7218;51.480;7.006;2023-12-04T07:43:20;6.05;;;4.53;;
14268;SDS011;7218;51.480;7.006;2023-12-04T07:45:46;5.70;;;4.35;;
14268;SDS011;7218;51.480;7.006;2023-12-04T07:48:13;6.20;;;3.90;;
14268;SDS011;7218;51.480;7.006;2023-12-04T07:50:41;6.85;;;4.47;;
14268;SDS011;7218;51.480;7.006;2023-12-04T07:53:07;5.68;;;4.13;;
14268;SDS011;7218;51.480;7.006;2023-12-04T07:55:36;6.50;;;3.90;;
14268;SDS011;7218;51.480;7.006;2023-12-04T07:58:02;6.88;;;4.28;;
14268;SDS011;7218;51.480;7.006;2023-12-04T08:00:29;6.40;;;3.55;;
14268;SDS011;7218;51.480;7.006;2023-12-04T08:02:55;7.25;;;3.78;;
14268;SDS011;7218;51.480;7.006;2023-12-04T08:05:22;7.63;;;4.20;;
14268;SDS011;7218;51.480;7.006;2023-12-04T08:07:50;6.13;;;3.90;;
14268;SDS011;7218;51.480;7.006;2023-12-04T08:10:16;4.90;;;3.60;;
14268;SDS011;7218;51.480;7.006;2023-12-04T08:12:44;5.38;;;3.50;;
14268;SDS011;7218;51.480;7.006;2023-12-04T08:15:10;4.78;;;3.35;;
14268;SDS011;7218;51.480;7.006;2023-12-04T08:17:37;5.60;;;3.78;;
14268;SDS011;7218;51.480;7.006;2023-12-04T08:20:04;7.38;;;3.60;;
14268;SDS011;7218;51.480;7.006;2023-12-04T08:22:31;7.55;;;4.00;;
14268;SDS011;7218;51.480;7.006;2023-12-04T08:24:59;5.90;;;3.90;;
14268;SDS011;7218;51.480;7.006;2023-12-04T08:27:26;6.57;;;3.80;;
14268;SDS011;7218;51.480;7.006;2023-12-04T08:29:52;5.53;;;3.58;;
14268;SDS011;7218;51.480;7.006;2023-12-04T08:32:19;6.10;;;3.92;;
14268;SDS011;7218;51.480;7.006;2023-12-04T08:34:46;6.88;;;3.78;;
14268;SDS011;7218;51.480;7.006;2023-12-04T08:37:12;6.47;;;3.53;;
14268;SDS011;7218;51.480;7.006;2023-12-04T08:39:39;6.53;;;3.42;;
14268;SDS011;7218;51.480;7.006;2023-12-04T08:42:07;8.07;;;4.38;;
14268;SDS011;7218;51.480;7.006;2023-12-04T08:44:33;5.80;;;3.72;;
14268;SDS011;7218;51.480;7.006;2023-12-04T08:47:00;4.65;;;3.15;;
14268;SDS011;7218;51.480;7.006;2023-12-04T08:49:26;4.55;;;3.28;;
14268;SDS011;7218;51.480;7.006;2023-12-04T08:51:53;7.10;;;3.58;;
14268;SDS011;7218;51.480;7.006;2023-12-04T08:54:19;6.75;;;3.60;;
14268;SDS011;7218;51.480;7.006;2023-12-04T08:56:46;6.22;;;3.58;;
14268;SDS011;7218;51.480;7.006;2023-12-04T08:59:14;6.32;;;3.70;;
14268;SDS011;7218;51.480;7.006;2023-12-04T09:01:41;6.35;;;3.80;;
14268;SDS011;7218;51.480;7.006;2023-12-04T09:04:08;4.60;;;3.60;;
14268;SDS011;7218;51.480;7.006;2023-12-04T09:06:35;4.50;;;3.03;;
14268;SDS011;7218;51.480;7.006;2023-12-04T09:09:01;4.95;;;3.50;;
14268;SDS011;7218;51.480;7.006;2023-12-04T09:11:28;6.63;;;3.25;;
14268;SDS011;7218;51.480;7.006;2023-12-04T09:13:54;4.75;;;3.20;;
14268;SDS011;7218;51.480;7.006;2023-12-04T09:16:22;3.83;;;3.20;;
14268;SDS011;7218;51.480;7.006;2023-12-04T09:18:49;4.32;;;3.20;;
14268;SDS011;7218;51.480;7.006;2023-12-04T09:21:15;4.97;;;2.95;;
14268;SDS011;7218;51.480;7.006;2023-12-04T09:23:42;4.60;;;2.97;;
14268;SDS011;7218;51.480;7.006;2023-12-04T09:26:14;5.80;;;3.25;;
14268;SDS011;7218;51.480;7.006;2023-12-04T09:28:41;8.13;;;3.40;;
14268;SDS011;7218;51.480;7.006;2023-12-04T09:31:08;4.68;;;3.30;;
14268;SDS011;7218;51.480;7.006;2023-12-04T09:33:36;7.03;;;3.65;;
14268;SDS011;7218;51.480;7.006;2023-12-04T09:36:02;6.47;;;3.20;;
14268;SDS011;7218;51.480;7.006;2023-12-04T09:38:29;3.92;;;3.00;;
14268;SDS011;7218;51.480;7.006;2023-12-04T09:40:57;4.72;;;3.50;;
14268;SDS011;7218;51.480;7.006;2023-12-04T09:43:26;6.43;;;3.20;;
14268;SDS011;7218;51.480;7.006;2023-12-04T09:45:54;5.25;;;3.42;;
14268;SDS011;7218;51.480;7.006;2023-12-04T09:48:20;4.70;;;3.25;;
14268;SDS011;7218;51.480;7.006;2023-12-04T09:50:50;4.38;;;3.53;;
14268;SDS011;7218;51.480;7.006;2023-12-04T09:53:18;5.85;;;3.60;;
14268;SDS011;7218;51.480;7.006;2023-12-04T09:55:47;4.00;;;3.28;;
14268;SDS011;7218;51.480;7.006;2023-12-04T09:58:14;4.82;;;3.28;;
14268;SDS011;7218;51.480;7.006;2023-12-04T10:00:41;4.47;;;3.28;;
14268;SDS011;7218;51.480;7.006;2023-12-04T10:03:09;4.25;;;2.95;;
14268;SDS011;7218;51.480;7.006;2023-12-04T10:05:35;4.85;;;3.17;;
14268;SDS011;7218;51.480;7.006;2023-12-04T10:08:03;4.13;;;2.90;;
14268;SDS011;7218;51.480;7.006;2023-12-04T10:10:30;4.07;;;3.03;;
14268;SDS011;7218;51.480;7.006;2023-12-04T10:12:59;4.57;;;3.05;;
14268;SDS011;7218;51.480;7.006;2023-12-04T10:15:26;3.75;;;2.92;;
14268;SDS011;7218;51.480;7.006;2023-12-04T10:17:52;5.03;;;3.30;;
14268;SDS011;7218;51.480;7.006;2023-12-04T10:20:19;5.53;;;3.50;;
14268;SDS011;7218;51.480;7.006;2023-12-04T10:22:53;4.50;;;3.40;;
14268;SDS011;7218;51.480;7.006;2023-12-04T10:25:22;4.72;;;3.33;;
14268;SDS011;7218;51.480;7.006;2023-12-04T10:27:50;6.55;;;3.38;;
14268;SDS011;7218;51.480;7.006;2023-12-04T10:30:23;5.75;;;3.47;;
14268;SDS011;7218;51.480;7.006;2023-12-04T10:32:54;4.90;;;3.53;;
14268;SDS011;7218;51.480;7.006;2023-12-04T10:35:25;4.15;;;3.20;;
14268;SDS011;7218;51.480;7.006;2023-12-04T10:37:53;4.63;;;3.25;;
14268;SDS011;7218;51.480;7.006;2023-12-04T10:40:24;5.93;;;3.75;;
14268;SDS011;7218;51.480;7.006;2023-12-04T10:42:57;4.90;;;3.33;;
14268;SDS011;7218;51.480;7.006;2023-12-04T10:45:36;5.00;;;3.60;;
14268;SDS011;7218;51.480;7.006;2023-12-04T10:48:04;5.15;;;3.53;;
14268;SDS011;7218;51.480;7.006;2023-12-04T10:50:31;6.30;;;3.95;;
14268;SDS011;7218;51.480;7.006;2023-12-04T10:52:58;5.97;;;3.80;;
14268;SDS011;7218;51.480;7.006;2023-12-04T10:55:28;6.85;;;4.30;;
14268;SDS011;7218;51.480;7.006;2023-12-04T10:57:54;6.50;;;4.00;;
14268;SDS011;7218;51.480;7.006;2023-12-04T11:00:22;8.85;;;3.83;;
14268;SDS011;7218;51.480;7.006;2023-12-04T11:02:49;6.35;;;4.00;;
14268;SDS011;7218;51.480;7.006;2023-12-04T11:05:22;7.00;;;4.40;;
14268;SDS011;7218;51.480;7.006;2023-12-04T11:07:50;5.28;;;3.88;;
14268;SDS011;7218;51.480;7.006;2023-12-04T11:10:19;6.47;;;4.15;;
14268;SDS011;7218;51.480;7.006;2023-12-04T11:12:51;5.68;;;4.13;;
14268;SDS011;7218;51.480;7.006;2023-12-04T11:15:22;6.40;;;4.28;;
14268;SDS011;7218;51.480;7.006;2023-12-04T11:17:51;4.93;;;3.92;;
14268;SDS011;7218;51.480;7.006;2023-12-04T11:20:20;6.40;;;4.60;;
14268;SDS011;7218;51.480;7.006;2023-12-04T11:22:51;8.65;;;4.53;;
14268;SDS011;7218;51.480;7.006;2023-12-04T11:25:20;6.22;;;4.40;;
14268;SDS011;7218;51.480;7.006;2023-12-04T11:27:51;7.82;;;4.40;;
14268;SDS011;7218;51.480;7.006;2023-12-04T11:30:18;7.13;;;4.47;;
14268;SDS011;7218;51.480;7.006;2023-12-04T11:32:46;6.20;;;4.35;;
14268;SDS011;7218;51.480;7.006;2023-12-04T11:35:14;7.80;;;4.97;;
14268;SDS011;7218;51.480;7.006;2023-12-04T11:37:42;7.35;;;5.05;;
14268;SDS011;7218;51.480;7.006;2023-12-04T11:40:10;7.88;;;4.55;;
14268;SDS011;7218;51.480;7.006;2023-12-04T11:42:38;9.73;;;5.05;;
14268;SDS011;7218;51.480;7.006;2023-12-04T11:45:07;6.78;;;4.72;;
14268;SDS011;7218;51.480;7.006;2023-12-04T11:47:49;9.13;;;5.07;;
14268;SDS011;7218;51.480;7.006;2023-12-04T11:50:17;6.78;;;4.75;;
14268;SDS011;7218;51.480;7.006;2023-12-04T11:52:45;7.82;;;4.70;;
14268;SDS011;7218;51.480;7.006;2023-12-04T11:55:15;9.07;;;4.65;;
14268;SDS011;7218;51.480;7.006;2023-12-04T11:57:43;7.00;;;5.18;;
14268;SDS011;7218;51.480;7.006;2023-12-04T12:00:18;5.88;;;4.68;;
14268;SDS011;7218;51.480;7.006;2023-12-04T12:02:48;7.25;;;4.80;;
14268;SDS011;7218;51.480;7.006;2023-12-04T12:05:28;6.90;;;4.25;;
14268;SDS011;7218;51.480;7.006;2023-12-04T12:08:00;8.10;;;5.05;;
14268;SDS011;7218;51.480;7.006;2023-12-04T12:10:27;6.18;;;4.13;;
14268;SDS011;7218;51.480;7.006;2023-12-04T12:12:55;6.70;;;4.55;;
14268;SDS011;7218;51.480;7.006;2023-12-04T12:15:23;7.60;;;5.07;;
14268;SDS011;7218;51.480;7.006;2023-12-04T12:17:49;6.97;;;4.75;;
14268;SDS011;7218;51.480;7.006;2023-12-04T12:20:16;8.02;;;4.78;;
14268;SDS011;7218;51.480;7.006;2023-12-04T12:22:44;5.30;;;3.75;;
14268;SDS011;7218;51.480;7.006;2023-12-04T12:25:11;8.50;;;4.72;;
14268;SDS011;7218;51.480;7.006;2023-12-04T12:27:37;7.05;;;4.68;;
14268;SDS011;7218;51.480;7.006;2023-12-04T12:30:05;7.80;;;4.85;;
14268;SDS011;7218;51.480;7.006;2023-12-04T12:32:33;7.18;;;5.50;;
14268;SDS011;7218;51.480;7.006;2023-12-04T12:35:00;8.70;;;5.25;;
14268;SDS011;7218;51.480;7.006;2023-12-04T12:37:28;7.55;;;5.70;;
14268;SDS011;7218;51.480;7.006;2023-12-04T12:39:55;6.25;;;5.18;;
14268;SDS011;7218;51.480;7.006;2023-12-04T12:42:23;7.40;;;5.43;;
14268;SDS011;7218;51.480;7.006;2023-12-04T12:44:50;7.07;;;4.78;;
14268;SDS011;7218;51.480;7.006;2023-12-04T12:47:17;8.73;;;5.65;;
14268;SDS011;7218;51.480;7.006;2023-12-04T12:49:45;7.53;;;5.47;;
14268;SDS011;7218;51.480;7.006;2023-12-04T12:52:12;7.97;;;5.57;;
14268;SDS011;7218;51.480;7.006;2023-12-04T12:54:39;9.23;;;5.55;;
14268;SDS011;7218;51.480;7.006;2023-12-04T12:57:07;7.35;;;5.20;;
14268;SDS011;7218;51.480;7.006;2023-12-04T12:59:34;8.30;;;5.22;;
14268;SDS011;7218;51.480;7.006;2023-12-04T13:02:01;8.90;;;5.68;;
14268;SDS011;7218;51.480;7.006;2023-12-04T13:04:33;7.75;;;5.40;;
14268;SDS011;7218;51.480;7.006;2023-12-04T13:07:01;8.68;;;5.80;;
14268;SDS011;7218;51.480;7.006;2023-12-04T13:09:29;9.48;;;5.78;;
14268;SDS011;7218;51.480;7.006;2023-12-04T13:11:55;8.52;;;5.40;;
14268;SDS011;7218;51.480;7.006;2023-12-04T13:14:22;7.20;;;5.50;;
14268;SDS011;7218;51.480;7.006;2023-12-04T13:16:48;8.77;;;5.90;;
14268;SDS011;7218;51.480;7.006;2023-12-04T13:19:14;8.73;;;5.90;;
14268;SDS011;7218;51.480;7.006;2023-12-04T13:21:42;6.90;;;5.18;;
14268;SDS011;7218;51.480;7.006;2023-12-04T13:24:10;8.02;;;5.40;;
14268;SDS011;7218;51.480;7.006;2023-12-04T13:26:37;7.32;;;5.53;;
14268;SDS011;7218;51.480;7.006;2023-12-04T13:29:04;10.70;;;5.60;;
14268;SDS011;7218;51.480;7.006;2023-12-04T13:31:31;8.75;;;5.55;;
14268;SDS011;7218;51.480;7.006;2023-12-04T13:33:57;12.07;;;5.40;;
14268;SDS011;7218;51.480;7.006;2023-12-04T13:36:24;7.93;;;5.50;;
14268;SDS011;7218;51.480;7.006;2023-12-04T13:38:52;8.20;;;5.35;;
14268;SDS011;7218;51.480;7.006;2023-12-04T13:41:20;6.93;;;5.00;;
14268;SDS011;7218;51.480;7.006;2023-12-04T13:44:00;6.68;;;5.13;;
14268;SDS011;7218;51.480;7.006;2023-12-04T13:46:28;6.22;;;4.68;;
14268;SDS011;7218;51.480;7.006;2023-12-04T13:48:54;5.68;;;4.40;;
14268;SDS011;7218;51.480;7.006;2023-12-04T13:51:21;10.55;;;6.07;;
14268;SDS011;7218;51.480;7.006;2023-12-04T13:53:48;6.50;;;5.20;;
14268;SDS011;7218;51.480;7.006;2023-12-04T13:56:21;8.45;;;5.00;;
14268;SDS011;7218;51.480;7.006;2023-12-04T13:59:06;7.22;;;5.25;;
14268;SDS011;7218;51.480;7.006;2023-12-04T14:01:33;6.15;;;4.90;;
14268;SDS011;7218;51.480;7.006;2023-12-04T14:04:06;6.57;;;4.68;;
14268;SDS011;7218;51.480;7.006;2023-12-04T14:06:34;5.88;;;4.40;;
14268;SDS011;7218;51.480;7.006;2023-12-04T14:09:00;5.88;;;4.60;;
14268;SDS011;7218;51.480;7.006;2023-12-04T14:11:30;6.68;;;4.70;;
14268;SDS011;7218;51.480;7.006;2023-12-04T14:13:57;5.82;;;4.30;;
14268;SDS011;7218;51.480;7.006;2023-12-04T14:16:23;6.07;;;4.60;;
14268;SDS011;7218;51.480;7.006;2023-12-04T14:18:50;6.15;;;4.40;;
14268;SDS011;7218;51.480;7.006;2023-12-04T14:21:16;6.00;;;4.50;;
14268;SDS011;7218;51.480;7.006;2023-12-04T14:23:42;6.45;;;4.45;;
14268;SDS011;7218;51.480;7.006;2023-12-04T14:26:09;12.13;;;4.93;;
14268;SDS011;7218;51.480;7.006;2023-12-04T14:28:37;6.68;;;4.47;;
14268;SDS011;7218;51.480;7.006;2023-12-04T14:31:05;6.88;;;4.60;;
14268;SDS011;7218;51.480;7.006;2023-12-04T14:33:32;5.70;;;4.28;;
14268;SDS011;7218;51.480;7.006;2023-12-04T14:35:59;6.18;;;4.50;;
14268;SDS011;7218;51.480;7.006;2023-12-04T14:38:25;5.18;;;4.38;;
14268;SDS011;7218;51.480;7.006;2023-12-04T14:40:52;7.00;;;4.57;;
14268;SDS011;7218;51.480;7.006;2023-12-04T14:43:18;5.82;;;3.80;;
14268;SDS011;7218;51.480;7.006;2023-12-04T14:45:46;5.40;;;4.13;;
14268;SDS011;7218;51.480;7.006;2023-12-04T14:48:12;6.15;;;4.45;;
14268;SDS011;7218;51.480;7.006;2023-12-04T14:50:39;6.90;;;4.80;;
14268;SDS011;7218;51.480;7.006;2023-12-04T14:53:05;5.68;;;4.38;;
14268;SDS011;7218;51.480;7.006;2023-12-04T14:55:41;4.75;;;4.03;;
14268;SDS011;7218;51.480;7.006;2023-12-04T14:58:28;5.40;;;4.35;;
14268;SDS011;7218;51.480;7.006;2023-12-04T15:01:38;4.57;;;3.50;;